Time;durP1;ratioP1;P1;durP2;ratioP2;P2;SDS_P1;SDS_P2;PMS_P1;PMS_P2;Temp;Humidity;BMP_temperature;BMP_pressure;BME280_temperature;BME280_humidity;BME280_pressure;Samples;Min_cycle;Max_cycle;Signal;HPM_P1;HPM_P2
2023/05/08 00:01:24;;;;;;;13.00;11.02;;;15.40;99.90;;;;;;4990853;28;20051;-56
2023/05/08 00:03:51;;;;;;;10.98;9.88;;;15.30;99.90;;;;;;4993517;28;20034;-56
2023/05/08 00:06:16;;;;;;;11.57;10.30;;;15.30;99.90;;;;;;4989426;28;20038;-56
2023/05/08 00:08:42;;;;;;;12.20;10.13;;;15.20;99.90;;;;;;4975748;28;20108;-56
2023/05/08 00:11:07;;;;;;;11.73;9.70;;;15.20;99.90;;;;;;4990920;28;20054;-56
2023/05/08 00:13:33;;;;;;;12.73;10.48;;;15.20;99.90;;;;;;4994681;28;20080;-56
2023/05/08 00:15:59;;;;;;;11.38;10.02;;;15.20;99.90;;;;;;4992304;28;20149;-56
2023/05/08 00:18:25;;;;;;;11.02;9.85;;;15.30;99.90;;;;;;4998390;28;20045;-56
2023/05/08 00:20:51;;;;;;;12.20;10.90;;;15.30;99.90;;;;;;4998681;28;20080;-56
2023/05/08 00:23:16;;;;;;;11.10;9.90;;;15.20;99.90;;;;;;4994515;28;20033;-56
2023/05/08 00:25:42;;;;;;;11.13;9.70;;;15.20;99.90;;;;;;4992370;28;20556;-56
2023/05/08 00:28:07;;;;;;;11.40;10.20;;;15.20;99.90;;;;;;4993860;28;20617;-56
2023/05/08 00:30:33;;;;;;;12.02;10.60;;;15.20;99.90;;;;;;4994473;28;20520;-56
2023/05/08 00:32:59;;;;;;;11.15;9.95;;;15.20;99.90;;;;;;4993218;28;20060;-57
2023/05/08 00:35:24;;;;;;;12.05;10.20;;;15.20;99.90;;;;;;4990867;28;20052;-56
2023/05/08 00:37:50;;;;;;;12.07;9.82;;;15.20;99.90;;;;;;4993545;28;20031;-57
2023/05/08 00:40:16;;;;;;;12.13;10.68;;;15.30;99.90;;;;;;4995181;28;20050;-56
2023/05/08 00:42:42;;;;;;;10.70;9.60;;;15.30;99.90;;;;;;4994914;28;20620;-56
2023/05/08 00:45:08;;;;;;;11.55;10.25;;;15.20;99.90;;;;;;4991931;28;20038;-56
2023/05/08 00:47:34;;;;;;;13.63;10.60;;;15.10;99.90;;;;;;4995688;28;20105;-57
2023/05/08 00:50:00;;;;;;;11.98;10.70;;;15.20;99.90;;;;;;4991845;28;20068;-56
2023/05/08 00:52:29;;;;;;;11.32;10.02;;;15.20;99.90;;;;;;4993252;28;20042;-57
2023/05/08 00:54:55;;;;;;;11.60;10.40;;;15.30;99.90;;;;;;4992216;28;20372;-56
2023/05/08 00:57:21;;;;;;;12.13;10.82;;;15.30;99.90;;;;;;4998358;28;20037;-57
2023/05/08 00:59:48;;;;;;;11.05;9.95;;;15.20;99.90;;;;;;5001110;28;20460;-57
2023/05/08 01:02:14;;;;;;;12.88;11.50;;;15.20;99.90;;;;;;4996842;28;20033;-56
2023/05/08 01:04:43;;;;;;;10.82;9.73;;;15.10;99.90;;;;;;4996079;28;20048;-57
2023/05/08 01:07:10;;;;;;;12.45;10.55;;;15.10;99.90;;;;;;4995395;28;20560;-56
2023/05/08 01:09:35;;;;;;;14.05;11.23;;;15.10;99.90;;;;;;4997797;28;20041;-57
2023/05/08 01:12:22;;;;;;;14.63;11.85;;;15.10;99.90;;;;;;5000139;28;20129;-56
2023/05/08 01:15:02;;;;;;;16.00;13.25;;;15.20;99.90;;;;;;4996352;28;20464;-56
2023/05/08 01:18:16;;;;;;;13.98;12.50;;;15.20;99.90;;;;;;4995942;28;20046;-56
2023/05/08 01:20:50;;;;;;;13.77;12.20;;;15.20;99.90;;;;;;4998347;28;20536;-56
2023/05/08 01:23:49;;;;;;;15.02;12.23;;;15.20;99.90;;;;;;5001520;28;20469;-56
2023/05/08 01:26:45;;;;;;;14.05;12.55;;;15.10;99.90;;;;;;4991975;28;20050;-56
2023/05/08 01:29:25;;;;;;;14.57;12.48;;;15.00;99.90;;;;;;4994182;28;20152;-56
2023/05/08 01:32:45;;;;;;;13.98;12.45;;;15.10;99.90;;;;;;4997396;28;20152;-56
2023/05/08 01:35:30;;;;;;;13.20;11.75;;;15.00;99.90;;;;;;4917472;28;20040;-56
2023/05/08 01:38:06;;;;;;;15.80;12.52;;;14.90;99.90;;;;;;4990277;28;20071;-56
2023/05/08 01:40:42;;;;;;;14.05;12.07;;;14.90;99.90;;;;;;4994357;28;20091;-56
2023/05/08 01:43:47;;;;;;;15.20;12.38;;;14.90;99.90;;;;;;4996496;28;20121;-56
2023/05/08 01:46:18;;;;;;;14.68;12.20;;;15.00;99.90;;;;;;4947722;28;20052;-56
2023/05/08 01:48:50;;;;;;;15.50;12.50;;;14.90;99.90;;;;;;4997089;28;20049;-56
2023/05/08 01:51:22;;;;;;;14.90;13.30;;;14.90;99.90;;;;;;4993486;28;20502;-56
2023/05/08 01:53:52;;;;;;;14.20;12.40;;;14.80;99.90;;;;;;4996388;28;20512;-56
2023/05/08 01:56:22;;;;;;;17.45;12.52;;;14.80;99.90;;;;;;4994581;28;20341;-56
2023/05/08 01:58:53;;;;;;;15.35;13.00;;;14.80;99.90;;;;;;4996294;28;20209;-56
2023/05/08 02:01:22;;;;;;;15.90;13.70;;;14.70;99.90;;;;;;4993171;28;20374;-56
2023/05/08 02:03:49;;;;;;;14.90;12.50;;;14.70;99.90;;;;;;4995329;28;20137;-56
2023/05/08 02:06:18;;;;;;;14.40;12.90;;;14.70;99.90;;;;;;4997698;28;20088;-56
2023/05/08 02:08:45;;;;;;;14.32;12.27;;;14.70;99.90;;;;;;4997531;28;20505;-56
2023/05/08 02:11:13;;;;;;;13.35;11.98;;;14.60;99.90;;;;;;4993613;28;20600;-56
2023/05/08 02:13:40;;;;;;;15.88;12.93;;;14.50;99.90;;;;;;4994788;28;20393;-56
2023/05/08 02:16:08;;;;;;;14.15;12.65;;;14.60;99.90;;;;;;4995046;28;20041;-56
2023/05/08 02:18:34;;;;;;;16.60;13.48;;;14.70;99.90;;;;;;4994397;28;20707;-56
2023/05/08 02:21:02;;;;;;;13.68;12.27;;;14.60;99.90;;;;;;4993410;28;20052;-56
2023/05/08 02:23:29;;;;;;;14.23;12.68;;;14.60;99.90;;;;;;4993492;28;20042;-56
2023/05/08 02:25:56;;;;;;;15.57;12.70;;;14.50;99.90;;;;;;5003915;28;20450;-56
2023/05/08 02:28:23;;;;;;;15.38;13.48;;;14.40;99.90;;;;;;5002582;28;20121;-56
2023/05/08 02:30:50;;;;;;;13.68;11.80;;;14.50;99.90;;;;;;4993331;28;20037;-56
2023/05/08 02:33:17;;;;;;;14.05;12.27;;;14.50;99.90;;;;;;4992776;28;20508;-56
2023/05/08 02:35:44;;;;;;;14.10;12.43;;;14.40;99.90;;;;;;4994384;28;20060;-56
2023/05/08 02:38:12;;;;;;;13.73;12.32;;;14.40;99.90;;;;;;4993933;28;20600;-56
2023/05/08 02:40:45;;;;;;;14.88;12.32;;;14.40;99.90;;;;;;4994753;28;21511;-56
2023/05/08 02:43:10;;;;;;;15.07;13.13;;;14.30;99.90;;;;;;4992139;28;20560;-56
2023/05/08 02:45:48;;;;;;;15.45;12.35;;;14.20;99.90;;;;;;4994285;28;20099;-56
2023/05/08 02:48:21;;;;;;;13.40;12.00;;;14.10;99.90;;;;;;4994320;28;20395;-56
2023/05/08 02:50:58;;;;;;;12.77;11.43;;;14.10;99.90;;;;;;4993935;28;20038;-56
2023/05/08 02:53:39;;;;;;;16.88;12.23;;;14.10;99.90;;;;;;4995333;28;20410;-56
2023/05/08 02:56:24;;;;;;;14.27;11.77;;;14.10;99.90;;;;;;4992454;28;20473;-56
2023/05/08 02:59:03;;;;;;;12.57;11.27;;;14.10;99.90;;;;;;4993669;28;20057;-56
2023/05/08 03:01:58;;;;;;;12.95;11.65;;;14.10;99.90;;;;;;4992275;28;20535;-56
2023/05/08 03:04:35;;;;;;;13.77;12.20;;;14.10;99.90;;;;;;4990411;28;20034;-57
2023/05/08 03:07:03;;;;;;;12.90;11.60;;;14.10;99.90;;;;;;4992922;28;20140;-56
2023/05/08 03:09:38;;;;;;;13.95;11.68;;;14.00;99.90;;;;;;4993958;28;20425;-56
2023/05/08 03:12:09;;;;;;;12.77;11.48;;;14.00;99.90;;;;;;4992813;28;20038;-56
2023/05/08 03:14:43;;;;;;;12.90;11.15;;;13.90;99.90;;;;;;4992891;28;20041;-56
2023/05/08 03:17:09;;;;;;;;;;;13.90;99.90;;;;;;4994010;28;20088;-56
2023/05/08 03:19:37;;;;;;;13.80;11.43;;;13.90;99.90;;;;;;4995912;28;19933;-57
2023/05/08 03:22:05;;;;;;;11.95;10.75;;;13.80;99.90;;;;;;4993486;28;20164;-56
2023/05/08 03:24:35;;;;;;;15.30;11.20;;;13.70;99.90;;;;;;4992961;28;20129;-56
2023/05/08 03:27:03;;;;;;;14.40;11.40;;;13.70;99.90;;;;;;4990458;28;20060;-56
2023/05/08 03:29:30;;;;;;;13.52;11.82;;;13.70;99.90;;;;;;4999045;28;20505;-56
2023/05/08 03:31:58;;;;;;;12.05;10.85;;;13.80;99.90;;;;;;4990511;28;20042;-56
2023/05/08 03:34:25;;;;;;;12.68;11.00;;;13.70;99.90;;;;;;4994977;28;20145;-56
2023/05/08 03:36:51;;;;;;;12.93;11.00;;;13.70;99.90;;;;;;4992898;28;20042;-56
2023/05/08 03:39:17;;;;;;;11.88;10.68;;;13.60;99.90;;;;;;4992351;28;20532;-56
2023/05/08 03:41:42;;;;;;;12.77;11.43;;;13.60;99.90;;;;;;4992714;28;20045;-56
2023/05/08 03:44:09;;;;;;;13.82;10.60;;;13.50;99.90;;;;;;4993984;28;20042;-56
2023/05/08 03:46:36;;;;;;;11.63;10.48;;;13.60;99.90;;;;;;4992736;28;20138;-56
2023/05/08 03:49:05;;;;;;;16.45;11.45;;;13.70;99.90;;;;;;4992687;28;20439;-56
2023/05/08 03:51:31;;;;;;;13.35;11.55;;;13.70;99.90;;;;;;4992952;28;20152;-56
2023/05/08 03:53:56;;;;;;;13.93;11.77;;;13.90;99.90;;;;;;4993759;28;20034;-56
2023/05/08 03:56:22;;;;;;;13.23;11.02;;;13.90;99.90;;;;;;4990972;28;20140;-56
2023/05/08 03:58:59;;;;;;;14.48;11.55;;;13.80;99.90;;;;;;4992891;28;20124;-56
2023/05/08 04:01:36;;;;;;;13.63;11.02;;;13.90;99.90;;;;;;4990715;28;20045;-56
2023/05/08 04:04:15;;;;;;;11.60;10.40;;;14.00;99.90;;;;;;4993074;28;20054;-56
2023/05/08 04:06:55;;;;;;;11.70;10.38;;;14.00;99.90;;;;;;4993171;28;20389;-56
2023/05/08 04:10:05;;;;;;;12.57;11.27;;;13.90;99.90;;;;;;4990495;28;20034;-55
2023/05/08 04:12:38;;;;;;;13.82;12.13;;;13.90;99.90;;;;;;4971635;28;20088;-56
2023/05/08 04:15:08;;;;;;;17.08;12.80;;;13.90;99.90;;;;;;4991910;28;20072;-55
2023/05/08 04:17:41;;;;;;;14.07;11.90;;;14.10;99.90;;;;;;4992024;28;20401;-56
2023/05/08 04:20:11;;;;;;;14.55;12.20;;;14.20;99.90;;;;;;4994915;28;20053;-55
2023/05/08 04:22:38;;;;;;;15.45;12.57;;;14.30;99.90;;;;;;4992091;28;20049;-56
2023/05/08 04:25:06;;;;;;;13.55;12.07;;;14.30;99.90;;;;;;4988895;28;20038;-55
2023/05/08 04:27:32;;;;;;;15.13;12.20;;;14.20;99.90;;;;;;4992916;28;20061;-56
2023/05/08 04:29:58;;;;;;;13.40;11.73;;;14.20;99.90;;;;;;4990828;28;20056;-56
2023/05/08 04:32:26;;;;;;;13.50;11.30;;;14.20;99.90;;;;;;4993774;28;20073;-57
2023/05/08 04:34:53;;;;;;;12.27;10.70;;;14.20;99.90;;;;;;4998972;28;20034;-56
2023/05/08 04:37:26;;;;;;;13.40;11.30;;;14.30;99.90;;;;;;4998861;28;20046;-56
2023/05/08 04:39:52;;;;;;;14.88;12.40;;;14.20;99.90;;;;;;5001979;28;20489;-56
2023/05/08 04:42:18;;;;;;;16.98;12.57;;;14.30;99.90;;;;;;5000796;28;20046;-57
2023/05/08 04:44:43;;;;;;;12.70;11.40;;;14.30;99.90;;;;;;4998407;28;20038;-56
2023/05/08 04:47:09;;;;;;;13.20;11.25;;;14.30;99.90;;;;;;4999336;28;20041;-56
2023/05/08 04:49:34;;;;;;;14.68;11.70;;;14.30;99.90;;;;;;5001107;28;20088;-56
2023/05/08 04:52:00;;;;;;;16.00;12.10;;;14.50;99.90;;;;;;5001107;28;20278;-56
2023/05/08 04:54:26;;;;;;;13.98;11.15;;;14.40;99.90;;;;;;4998263;28;20121;-56
2023/05/08 04:56:52;;;;;;;11.65;10.50;;;14.40;99.90;;;;;;5000222;28;20116;-56
2023/05/08 04:59:17;;;;;;;15.05;12.30;;;14.40;99.90;;;;;;4979745;28;20049;-56
2023/05/08 05:01:45;;;;;;;14.70;13.13;;;14.50;99.90;;;;;;4999675;28;20050;-56
2023/05/08 05:04:11;;;;;;;16.63;12.93;;;14.60;99.90;;;;;;4998813;28;20030;-56
2023/05/08 05:06:36;;;;;;;13.57;12.00;;;14.60;99.90;;;;;;5000411;28;20449;-56
2023/05/08 05:09:03;;;;;;;13.88;12.18;;;14.70;99.90;;;;;;4997378;28;20165;-57
2023/05/08 05:11:29;;;;;;;12.30;11.10;;;14.80;99.90;;;;;;5000177;28;20045;-57
2023/05/08 05:13:54;;;;;;;17.17;14.05;;;14.80;99.90;;;;;;4996986;28;20085;-57
2023/05/08 05:16:20;;;;;;;13.40;12.00;;;14.80;99.90;;;;;;4993328;28;20034;-56
2023/05/08 05:18:46;;;;;;;14.75;12.73;;;14.70;99.90;;;;;;4996712;28;20056;-56
2023/05/08 05:21:12;;;;;;;13.93;12.43;;;14.90;99.90;;;;;;4970258;28;20057;-57
2023/05/08 05:23:37;;;;;;;14.65;13.07;;;15.00;99.90;;;;;;4991731;28;20041;-56
2023/05/08 05:26:03;;;;;;;16.42;14.27;;;15.00;99.90;;;;;;4998210;28;20042;-57
2023/05/08 05:28:29;;;;;;;20.00;15.10;;;15.10;99.90;;;;;;5001759;28;20420;-56
2023/05/08 05:30:54;;;;;;;16.88;14.20;;;15.20;99.90;;;;;;4996811;28;20038;-56
2023/05/08 05:33:20;;;;;;;18.38;15.38;;;15.30;99.90;;;;;;4998157;28;20056;-56
2023/05/08 05:35:46;;;;;;;19.83;14.23;;;15.30;99.90;;;;;;5003690;28;20034;-57
2023/05/08 05:38:11;;;;;;;16.88;14.07;;;15.30;99.90;;;;;;4995948;28;20050;-56
2023/05/08 05:40:37;;;;;;;17.58;14.30;;;15.20;99.90;;;;;;4997892;28;20049;-56
2023/05/08 05:43:02;;;;;;;15.85;13.70;;;15.10;99.90;;;;;;4999462;28;20392;-57
2023/05/08 05:45:28;;;;;;;17.75;13.90;;;15.00;99.90;;;;;;5002060;28;20030;-57
2023/05/08 05:47:54;;;;;;;18.73;14.18;;;15.20;99.90;;;;;;5000229;28;20033;-57
2023/05/08 05:50:21;;;;;;;17.83;14.73;;;15.10;99.90;;;;;;4998817;28;20085;-56
2023/05/08 05:52:47;;;;;;;16.90;14.30;;;15.20;99.90;;;;;;4998734;28;20092;-56
2023/05/08 05:55:12;;;;;;;15.48;13.85;;;15.30;99.90;;;;;;4996067;28;20038;-56
2023/05/08 05:57:38;;;;;;;21.45;15.00;;;15.20;99.90;;;;;;4994317;28;20096;-57
2023/05/08 06:00:04;;;;;;;18.67;15.35;;;15.30;99.90;;;;;;4997851;28;20058;-57
2023/05/08 06:02:32;;;;;;;16.92;13.82;;;15.30;99.90;;;;;;4999745;28;20073;-57
2023/05/08 06:04:58;;;;;;;18.13;15.82;;;15.30;99.90;;;;;;5001826;28;20038;-57
2023/05/08 06:07:24;;;;;;;16.80;14.35;;;15.50;99.90;;;;;;4998445;28;20474;-56
2023/05/08 06:09:50;;;;;;;18.17;16.05;;;15.60;99.90;;;;;;4998328;28;20114;-57
2023/05/08 06:12:17;;;;;;;25.27;19.88;;;15.80;99.90;;;;;;4997456;28;20393;-57
2023/05/08 06:14:42;;;;;;;25.88;18.98;;;15.40;99.90;;;;;;4998383;28;21188;-56
2023/05/08 06:17:08;;;;;;;23.92;17.38;;;16.30;99.90;;;;;;4998461;28;20120;-57
2023/05/08 06:19:34;;;;;;;21.70;18.35;;;16.40;99.90;;;;;;4997473;28;21268;-57
2023/05/08 06:21:59;;;;;;;21.10;17.80;;;16.40;99.90;;;;;;4999204;28;20046;-57
2023/05/08 06:24:26;;;;;;;19.25;16.73;;;16.40;99.90;;;;;;4974381;28;20184;-56
2023/05/08 06:26:52;;;;;;;19.52;17.42;;;16.50;99.90;;;;;;4995442;28;20359;-57
2023/05/08 06:29:17;;;;;;;18.20;15.82;;;16.60;99.90;;;;;;4994538;28;20060;-56
2023/05/08 06:31:43;;;;;;;20.23;17.25;;;16.70;99.90;;;;;;4993601;28;20046;-57
2023/05/08 06:34:09;;;;;;;19.58;15.57;;;16.60;99.90;;;;;;4986314;28;20073;-57
2023/05/08 06:36:35;;;;;;;21.35;16.80;;;16.60;99.90;;;;;;4978782;28;20366;-56
2023/05/08 06:39:03;;;;;;;19.50;17.25;;;16.90;99.90;;;;;;5005952;28;20040;-56
2023/05/08 06:41:28;;;;;;;20.42;16.80;;;17.00;99.90;;;;;;4998164;28;20057;-57
2023/05/08 06:43:54;;;;;;;21.08;16.33;;;17.10;99.90;;;;;;4998504;28;20444;-56
2023/05/08 06:46:20;;;;;;;20.42;16.08;;;17.20;99.90;;;;;;4990985;28;20658;-57
2023/05/08 06:48:46;;;;;;;19.02;15.93;;;17.20;99.90;;;;;;4994148;28;20433;-57
2023/05/08 06:51:11;;;;;;;17.15;15.38;;;17.10;99.90;;;;;;4991866;28;20481;-57
2023/05/08 06:53:37;;;;;;;18.17;15.52;;;17.20;99.90;;;;;;4995287;28;20037;-56
2023/05/08 06:56:02;;;;;;;18.52;15.48;;;17.30;99.90;;;;;;4991373;28;20192;-58
2023/05/08 06:58:30;;;;;;;18.73;14.90;;;17.30;99.90;;;;;;4991170;28;20222;-57
2023/05/08 07:00:55;;;;;;;17.60;15.23;;;17.30;99.90;;;;;;4992331;28;20034;-60
2023/05/08 07:03:21;;;;;;;21.23;17.42;;;17.50;99.90;;;;;;4993383;28;20562;-57
2023/05/08 07:05:47;;;;;;;20.60;16.52;;;17.80;99.90;;;;;;4982447;28;20064;-57
2023/05/08 07:08:12;;;;;;;17.35;15.48;;;17.80;99.90;;;;;;4989478;28;20046;-57
2023/05/08 07:10:38;;;;;;;18.40;15.88;;;17.80;99.90;;;;;;4997657;28;20037;-57
2023/05/08 07:13:03;;;;;;;17.40;15.35;;;17.90;99.90;;;;;;4997236;28;20034;-57
2023/05/08 07:15:30;;;;;;;16.63;13.93;;;17.80;99.90;;;;;;4998945;28;20034;-57
2023/05/08 07:17:56;;;;;;;16.42;14.70;;;17.90;99.90;;;;;;4994128;28;20052;-57
2023/05/08 07:20:23;;;;;;;20.42;16.75;;;17.70;99.90;;;;;;4994042;28;20600;-57
2023/05/08 07:22:49;;;;;;;17.85;15.68;;;17.20;99.90;;;;;;4993473;28;20152;-57
2023/05/08 07:25:15;;;;;;;18.10;16.00;;;17.40;99.90;;;;;;4984009;28;20045;-57
2023/05/08 07:27:41;;;;;;;25.40;21.52;;;17.30;99.90;;;;;;4989645;28;20096;-57
2023/05/08 07:30:08;;;;;;;21.40;17.77;;;17.20;99.90;;;;;;4996974;28;20440;-57
2023/05/08 07:32:34;;;;;;;20.45;16.65;;;17.60;99.90;;;;;;4995710;28;20548;-57
2023/05/08 07:35:01;;;;;;;17.40;15.60;;;;;;;;;;4993831;28;20491;-57
2023/05/08 07:37:28;;;;;;;18.73;16.02;;;18.10;99.90;;;;;;4996314;28;20484;-57
2023/05/08 07:39:53;;;;;;;20.00;17.90;;;18.00;99.90;;;;;;5002386;28;20401;-57
2023/05/08 07:42:20;;;;;;;20.08;17.20;;;18.10;99.90;;;;;;4999870;28;20040;-57
2023/05/08 07:44:47;;;;;;;21.48;19.20;;;;;;;;;;4988324;28;20454;-57
2023/05/08 07:47:15;;;;;;;23.55;21.05;;;;;;;;;;4994530;28;20052;-57
2023/05/08 07:49:41;;;;;;;31.42;28.15;;;;;;;;;;4990808;28;20052;-57
2023/05/08 07:52:07;;;;;;;30.73;27.63;;;18.80;99.90;;;;;;4992253;28;20045;-57
2023/05/08 07:54:33;;;;;;;29.98;27.00;;;19.00;99.90;;;;;;4992607;28;20046;-57
2023/05/08 07:56:58;;;;;;;29.75;26.75;;;18.70;99.90;;;;;;4995120;28;20136;-57
2023/05/08 07:59:24;;;;;;;31.23;27.98;;;18.40;99.90;;;;;;4991933;28;20042;-57
2023/05/08 08:01:49;;;;;;;28.10;25.30;;;18.60;99.90;;;;;;4994568;28;20091;-57
2023/05/08 08:04:15;;;;;;;83.43;74.22;;;18.50;99.90;;;;;;4985454;28;20390;-57
2023/05/08 08:06:40;;;;;;;53.50;40.08;;;18.40;99.90;;;;;;5004340;28;20485;-57
2023/05/08 08:09:06;;;;;;;28.17;25.23;;;18.60;99.90;;;;;;4996911;28;20026;-57
2023/05/08 08:11:32;;;;;;;28.05;25.13;;;18.70;99.90;;;;;;5003515;28;20389;-57
2023/05/08 08:13:57;;;;;;;24.67;22.35;;;18.80;99.90;;;;;;5002949;28;20496;-57
2023/05/08 08:16:23;;;;;;;22.08;19.83;;;19.10;99.90;;;;;;5002779;28;20099;-57
2023/05/08 08:18:49;;;;;;;23.30;21.00;;;19.30;99.90;;;;;;5000013;28;20412;-57
2023/05/08 08:21:15;;;;;;;19.42;17.50;;;19.20;99.90;;;;;;5004627;28;20058;-57
2023/05/08 08:23:41;;;;;;;21.42;19.30;;;19.00;99.90;;;;;;5006473;28;20068;-57
2023/05/08 08:26:06;;;;;;;24.42;21.83;;;19.00;99.90;;;;;;5005780;28;20034;-57
2023/05/08 08:28:32;;;;;;;24.92;22.52;;;19.20;99.90;;;;;;5006566;28;20029;-57
2023/05/08 08:30:57;;;;;;;26.55;23.95;;;19.20;99.90;;;;;;4995913;28;20091;-57
2023/05/08 08:33:23;;;;;;;25.52;23.02;;;19.20;99.90;;;;;;5000063;28;20681;-57
2023/05/08 08:35:49;;;;;;;25.35;22.95;;;19.10;99.90;;;;;;4998495;28;20037;-57
2023/05/08 08:38:15;;;;;;;26.40;23.98;;;19.00;99.90;;;;;;4999081;28;20405;-57
2023/05/08 08:40:41;;;;;;;25.60;23.20;;;19.20;99.90;;;;;;5004741;28;20029;-57
2023/05/08 08:43:08;;;;;;;28.55;25.55;;;19.00;99.90;;;;;;4997216;28;20034;-57
2023/05/08 08:45:35;;;;;;;26.92;24.25;;;19.10;99.90;;;;;;4997729;28;20033;-57
2023/05/08 08:48:02;;;;;;;27.70;24.98;;;19.10;99.90;;;;;;5001106;28;20077;-57
2023/05/08 08:50:33;;;;;;;28.20;25.40;;;19.20;99.90;;;;;;5000739;28;20073;-57
2023/05/08 08:53:22;;;;;;;26.50;23.92;;;19.30;99.90;;;;;;5000506;28;20832;-57
2023/05/08 08:55:51;;;;;;;27.05;24.55;;;19.30;99.90;;;;;;4991249;28;20453;-57
2023/05/08 08:58:32;;;;;;;26.23;23.77;;;19.30;99.90;;;;;;4995155;28;20500;-58
2023/05/08 09:01:00;;;;;;;27.13;24.55;;;19.30;99.90;;;;;;4999753;28;20038;-57
2023/05/08 09:03:26;;;;;;;24.77;22.48;;;19.40;99.90;;;;;;4997989;28;20038;-57
2023/05/08 09:05:53;;;;;;;25.40;23.00;;;19.40;99.90;;;;;;5000078;28;20520;-58
2023/05/08 09:08:19;;;;;;;23.38;21.00;;;19.20;99.90;;;;;;4996506;28;20778;-57
2023/05/08 09:10:45;;;;;;;24.23;21.83;;;19.20;99.90;;;;;;4985293;28;20029;-57
2023/05/08 09:13:11;;;;;;;22.17;19.77;;;19.40;99.90;;;;;;4999591;28;20046;-57
2023/05/08 09:15:37;;;;;;;18.17;16.30;;;19.50;99.90;;;;;;4984160;28;20034;-57
2023/05/08 09:18:02;;;;;;;18.30;15.90;;;19.60;99.90;;;;;;5000144;28;20034;-57
2023/05/08 09:20:28;;;;;;;17.00;15.27;;;19.70;99.90;;;;;;4998885;28;20038;-57
2023/05/08 09:22:54;;;;;;;16.52;14.88;;;20.30;99.90;;;;;;5006684;28;20072;-57
2023/05/08 09:25:20;;;;;;;13.85;12.55;;;20.30;99.90;;;;;;5002718;28;20045;-57
2023/05/08 09:27:46;;;;;;;12.63;11.38;;;20.60;99.90;;;;;;4980446;28;20033;-57
2023/05/08 09:30:15;;;;;;;13.00;11.70;;;20.40;99.90;;;;;;5002849;28;20124;-57
2023/05/08 09:32:43;;;;;;;14.20;11.20;;;20.40;99.90;;;;;;5005925;28;20037;-57
2023/05/08 09:35:10;;;;;;;14.68;13.18;;;20.50;99.90;;;;;;5002658;28;20057;-57
2023/05/08 09:37:41;;;;;;;14.20;12.82;;;20.30;99.90;;;;;;4985481;28;20494;-57
2023/05/08 09:40:18;;;;;;;14.13;12.70;;;20.20;99.90;;;;;;4999094;28;20544;-57
2023/05/08 09:42:45;;;;;;;15.02;11.48;;;20.20;99.90;;;;;;5005911;28;20128;-57
2023/05/08 09:45:10;;;;;;;16.67;14.85;;;20.20;99.90;;;;;;4991599;28;20523;-57
2023/05/08 09:47:38;;;;;;;14.98;12.88;;;20.30;99.90;;;;;;4999495;28;20406;-57
2023/05/08 09:50:03;;;;;;;14.68;12.45;;;20.30;99.90;;;;;;5005892;28;20060;-57
2023/05/08 09:52:30;;;;;;;13.90;12.40;;;20.20;99.90;;;;;;5003988;28;20031;-57
2023/05/08 09:54:58;;;;;;;13.27;11.38;;;20.10;99.90;;;;;;5004239;28;20038;-57
2023/05/08 09:57:24;;;;;;;12.52;11.32;;;20.40;99.90;;;;;;4987858;28;20520;-57
2023/05/08 09:59:50;;;;;;;13.77;12.48;;;20.30;99.90;;;;;;5005075;28;20480;-58
2023/05/08 10:02:16;;;;;;;13.13;11.77;;;20.30;99.90;;;;;;5002018;28;20042;-57
2023/05/08 10:04:41;;;;;;;14.65;11.85;;;20.50;99.90;;;;;;4999728;28;20068;-58
2023/05/08 10:07:07;;;;;;;14.73;13.25;;;20.80;99.90;;;;;;4998997;28;20163;-57
2023/05/08 10:09:33;;;;;;;14.48;13.07;;;20.80;99.90;;;;;;4998453;28;20042;-57
2023/05/08 10:11:58;;;;;;;14.70;13.10;;;20.60;99.90;;;;;;4991452;28;20033;-57
2023/05/08 10:14:24;;;;;;;14.30;12.93;;;21.10;99.90;;;;;;5013643;28;20120;-57
2023/05/08 10:16:51;;;;;;;13.95;12.57;;;20.60;99.90;;;;;;5000641;28;20038;-57
2023/05/08 10:19:21;;;;;;;14.30;12.77;;;20.80;99.90;;;;;;5001269;28;20663;-58
2023/05/08 10:21:52;;;;;;;14.23;12.73;;;20.80;99.90;;;;;;5006099;28;20030;-57
2023/05/08 10:24:32;;;;;;;14.77;13.32;;;20.60;99.90;;;;;;5004529;28;20042;-57
2023/05/08 10:27:38;;;;;;;18.75;16.85;;;20.40;99.90;;;;;;5006411;28;20037;-66
2023/05/08 10:30:04;;;;;;;14.10;11.20;;;20.40;99.90;;;;;;5001369;28;20073;-65
2023/05/08 10:32:37;;;;;;;13.88;10.02;;;20.50;99.90;;;;;;5002027;28;20038;-65
2023/05/08 10:35:05;;;;;;;10.82;9.20;;;;;;;;;;4989997;28;20045;-64
2023/05/08 10:37:34;;;;;;;10.55;9.43;;;20.90;99.90;;;;;;5003973;28;20056;-65
2023/05/08 10:40:02;;;;;;;14.70;10.38;;;20.90;99.90;;;;;;5007723;28;20031;-65
2023/05/08 10:42:28;;;;;;;11.23;9.80;;;20.90;99.90;;;;;;5009914;28;20041;-65
2023/05/08 10:44:54;;;;;;;11.05;9.93;;;20.90;99.90;;;;;;5005420;28;20061;-65
2023/05/08 10:48:07;;;;;;;10.07;9.02;;;20.80;99.90;;;;;;5004139;28;20512;-65
2023/05/08 10:51:01;;;;;;;11.82;10.20;;;20.60;99.90;;;;;;4985949;28;20064;-65
2023/05/08 10:53:52;;;;;;;10.15;8.95;;;20.80;99.90;;;;;;5003131;28;20497;-65
2023/05/08 10:56:25;;;;;;;8.95;8.05;;;20.90;99.90;;;;;;5002412;28;20120;-65
2023/05/08 10:58:58;;;;;;;12.32;9.00;;;20.90;99.90;;;;;;5004377;28;20129;-65
2023/05/08 11:01:25;;;;;;;9.50;8.48;;;20.90;99.90;;;;;;5002059;28;20448;-65
2023/05/08 11:03:51;;;;;;;10.98;9.85;;;20.90;99.90;;;;;;4999844;28;20045;-65
2023/05/08 11:06:37;;;;;;;10.43;9.43;;;20.90;99.90;;;;;;5003742;28;20038;-65
2023/05/08 11:09:03;;;;;;;9.52;8.50;;;21.00;99.90;;;;;;5004738;28;20041;-64
2023/05/08 11:11:32;;;;;;;10.02;9.02;;;21.10;99.90;;;;;;5004253;28;20087;-65
2023/05/08 11:14:10;;;;;;;10.57;9.57;;;21.20;99.90;;;;;;4999794;28;20034;-65
2023/05/08 11:16:53;;;;;;;10.57;8.65;;;21.30;99.90;;;;;;4999501;28;20042;-65
2023/05/08 11:19:23;;;;;;;12.05;9.57;;;21.30;99.90;;;;;;5001588;28;20041;-65
2023/05/08 11:22:25;;;;;;;10.98;9.85;;;21.40;99.90;;;;;;4996542;28;20263;-66
2023/05/08 11:25:05;;;;;;;11.35;10.25;;;21.40;99.90;;;;;;4970073;28;20093;-66
2023/05/08 11:27:45;;;;;;;11.35;10.10;;;21.50;99.90;;;;;;4997650;28;20372;-65
2023/05/08 11:30:21;;;;;;;9.55;8.15;;;21.70;99.90;;;;;;4987827;28;20214;-65
2023/05/08 11:33:02;;;;;;;8.68;7.78;;;21.50;99.90;;;;;;4999373;28;20041;-65
2023/05/08 11:36:24;;;;;;;10.05;9.02;;;21.60;99.90;;;;;;4992211;28;20071;-66
2023/05/08 11:39:11;;;;;;;8.45;7.63;;;21.80;99.90;;;;;;4957282;28;20260;-66
2023/05/08 11:41:38;;;;;;;10.07;9.00;;;21.90;99.90;;;;;;5005419;28;20037;-66
2023/05/08 11:44:03;;;;;;;9.68;8.68;;;21.80;99.90;;;;;;4998194;28;20030;-65
2023/05/08 11:46:49;;;;;;;8.65;7.85;;;21.80;99.90;;;;;;5001955;28;20092;-65
2023/05/08 11:49:15;;;;;;;9.57;8.25;;;21.70;99.90;;;;;;4997189;28;20505;-66
2023/05/08 11:51:45;;;;;;;10.05;7.90;;;21.70;99.90;;;;;;4984739;28;20550;-65
2023/05/08 11:54:13;;;;;;;9.15;8.25;;;21.80;99.90;;;;;;5006297;28;20184;-65
2023/05/08 11:56:39;;;;;;;9.65;7.97;;;21.90;99.90;;;;;;5005999;28;20497;-66
2023/05/08 11:59:07;;;;;;;7.68;6.90;;;21.90;99.90;;;;;;5003575;28;20096;-65
2023/05/08 12:01:33;;;;;;;10.85;7.53;;;21.90;99.90;;;;;;5005517;28;20517;-66
2023/05/08 12:04:04;;;;;;;8.98;8.07;;;21.90;99.90;;;;;;4998546;28;20041;-66
2023/05/08 12:06:31;;;;;;;9.88;8.93;;;21.90;99.90;;;;;;4993947;28;20500;-66
2023/05/08 12:08:58;;;;;;;8.20;7.40;;;22.00;99.90;;;;;;4998831;28;20042;-66
2023/05/08 12:11:24;;;;;;;9.25;7.50;;;22.20;99.90;;;;;;5003168;28;20224;-66
2023/05/08 12:13:50;;;;;;;10.55;9.43;;;22.30;99.90;;;;;;4997634;28;20034;-66
2023/05/08 12:16:16;;;;;;;8.85;8.05;;;22.30;99.90;;;;;;4999389;28;20038;-66
2023/05/08 12:18:42;;;;;;;12.80;9.88;;;22.40;99.90;;;;;;5000687;28;20056;-65
2023/05/08 12:21:10;;;;;;;9.90;8.90;;;22.40;99.90;;;;;;5006199;28;20037;-65
2023/05/08 12:23:36;;;;;;;10.57;9.60;;;22.50;99.90;;;;;;5002083;28;21395;-66
2023/05/08 12:26:02;;;;;;;10.80;8.77;;;22.50;99.90;;;;;;5005548;28;20122;-65
2023/05/08 12:28:29;;;;;;;9.57;8.40;;;22.50;99.90;;;;;;5000411;28;20120;-66
2023/05/08 12:30:55;;;;;;;8.85;7.57;;;22.60;99.90;;;;;;4992985;28;20041;-66
2023/05/08 12:33:21;;;;;;;10.32;8.30;;;22.50;99.90;;;;;;5004976;28;20034;-64
2023/05/08 12:35:46;;;;;;;11.35;9.60;;;22.60;99.90;;;;;;5005355;28;20061;-64
2023/05/08 12:38:12;;;;;;;10.15;9.13;;;22.60;99.90;;;;;;5005747;28;20044;-64
2023/05/08 12:40:43;;;;;;;9.80;8.40;;;22.60;99.90;;;;;;5012822;28;20514;-64
2023/05/08 12:43:09;;;;;;;14.18;10.95;;;22.40;99.90;;;;;;5006509;28;20390;-64